Time;durP1;ratioP1;P1;durP2;ratioP2;P2;SDS_P1;SDS_P2;PMS_P1;PMS_P2;Temp;Humidity;BMP_temperature;BMP_pressure;BME280_temperature;BME280_humidity;BME280_pressure;Samples;Min_cycle;Max_cycle;Signal;HPM_P1;HPM_P2
2022/05/24 00:01:23;;;;;;;3.83;2.45;;;17.90;99.90;;;;;;5050326;28;20431;-65
2022/05/24 00:03:49;;;;;;;2.22;2.03;;;17.90;99.90;;;;;;5033090;28;20512;-65
2022/05/24 00:06:16;;;;;;;4.00;2.47;;;17.80;99.90;;;;;;5032961;28;20378;-68
2022/05/24 00:08:42;;;;;;;3.13;2.13;;;17.90;99.90;;;;;;5050976;28;20094;-65
2022/05/24 00:11:08;;;;;;;1.92;1.83;;;17.90;99.90;;;;;;5033069;28;20095;-65
2022/05/24 00:13:33;;;;;;;2.60;1.83;;;17.90;99.90;;;;;;5049924;28;20037;-65
2022/05/24 00:15:59;;;;;;;2.58;2.00;;;17.90;99.90;;;;;;5050889;28;20068;-65
2022/05/24 00:18:28;;;;;;;1.77;1.45;;;17.90;99.90;;;;;;5032356;28;20442;-65
2022/05/24 00:21:03;;;;;;;4.53;2.35;;;17.90;99.90;;;;;;5032550;28;20481;-65
2022/05/24 00:23:31;;;;;;;5.40;1.85;;;17.90;99.90;;;;;;5032007;28;20044;-65
2022/05/24 00:26:02;;;;;;;4.60;1.85;;;18.00;99.90;;;;;;5050748;28;20375;-66
2022/05/24 00:28:31;;;;;;;3.28;1.73;;;17.90;99.90;;;;;;5050140;28;20044;-65
2022/05/24 00:30:57;;;;;;;3.38;1.77;;;17.90;99.90;;;;;;5050707;28;20033;-65
2022/05/24 00:33:23;;;;;;;4.45;1.90;;;18.00;99.90;;;;;;5050314;28;20493;-65
2022/05/24 00:35:50;;;;;;;3.95;1.42;;;18.00;99.90;;;;;;5050829;28;20025;-65
2022/05/24 00:38:39;;;;;;;2.05;1.38;;;17.90;99.90;;;;;;5032896;28;20056;-65
2022/05/24 00:41:36;;;;;;;5.90;1.60;;;17.90;99.90;;;;;;5050861;28;20049;-68
2022/05/24 00:44:19;;;;;;;2.47;1.50;;;17.80;99.90;;;;;;5033009;28;20040;-66
2022/05/24 00:46:56;;;;;;;3.78;1.60;;;17.90;99.90;;;;;;5051032;28;20056;-66
2022/05/24 00:49:30;;;;;;;1.80;1.25;;;17.90;99.90;;;;;;5049835;28;20037;-66
2022/05/24 00:52:08;;;;;;;2.13;1.23;;;17.90;99.90;;;;;;5050658;28;20048;-66
2022/05/24 00:54:34;;;;;;;1.20;1.10;;;18.00;99.90;;;;;;5032314;28;20060;-67
2022/05/24 00:57:17;;;;;;;2.78;0.80;;;18.00;99.90;;;;;;5032609;28;20075;-67
2022/05/24 01:00:10;;;;;;;1.92;1.20;;;18.00;99.90;;;;;;5050131;28;20048;-66
2022/05/24 01:02:37;;;;;;;3.88;1.40;;;18.00;99.90;;;;;;5049107;28;20049;-65
2022/05/24 01:05:08;;;;;;;2.08;0.90;;;17.90;99.90;;;;;;5050060;28;20474;-65
2022/05/24 01:07:34;;;;;;;1.98;1.08;;;18.00;99.90;;;;;;5049420;28;20067;-66
2022/05/24 01:10:06;;;;;;;1.90;1.00;;;18.00;99.90;;;;;;5050135;28;20040;-67
2022/05/24 01:12:37;;;;;;;3.03;1.00;;;17.80;99.90;;;;;;5049536;28;20029;-66
2022/05/24 01:15:04;;;;;;;;;;;17.90;99.90;;;;;;5032933;28;20033;-66
2022/05/24 01:17:31;;;;;;;3.13;1.38;;;17.80;99.90;;;;;;5050011;28;19904;-66
2022/05/24 01:19:56;;;;;;;2.17;1.70;;;17.80;99.90;;;;;;5032130;28;20470;-66
2022/05/24 01:23:00;;;;;;;2.78;2.00;;;17.60;99.90;;;;;;5049389;28;20037;-66
2022/05/24 01:25:40;;;;;;;1.83;1.63;;;17.60;99.90;;;;;;5048019;28;20078;-66
2022/05/24 01:28:25;;;;;;;4.53;1.80;;;17.50;99.90;;;;;;5053366;28;20083;-65
2022/05/24 01:30:51;;;;;;;3.55;1.80;;;17.50;99.90;;;;;;5035381;28;20037;-65
2022/05/24 01:36:12;;;;;;;1.38;1.27;;;17.50;99.90;;;;;;5053692;28;20124;-65
2022/05/24 01:38:51;;;;;;;1.65;1.50;;;17.50;99.90;;;;;;5053184;28;20037;-65
2022/05/24 01:41:36;;;;;;;2.47;1.70;;;17.50;99.90;;;;;;5035666;28;20048;-66
2022/05/24 01:44:02;;;;;;;2.50;1.90;;;17.40;99.90;;;;;;5053624;28;20025;-66
2022/05/24 01:46:35;;;;;;;2.22;1.80;;;17.30;99.90;;;;;;5052632;28;20052;-64
2022/05/24 01:49:08;;;;;;;4.00;1.83;;;17.40;99.90;;;;;;5035573;28;20033;-66
2022/05/24 01:51:39;;;;;;;2.78;1.98;;;17.40;99.90;;;;;;5052858;28;20071;-66
2022/05/24 01:54:06;;;;;;;4.55;1.77;;;17.40;99.90;;;;;;5053176;28;20033;-65
2022/05/24 01:56:46;;;;;;;2.25;1.90;;;17.30;99.90;;;;;;5034675;28;20041;-67
2022/05/24 01:59:14;;;;;;;2.78;1.73;;;17.30;99.90;;;;;;5053239;28;20033;-66
2022/05/24 02:01:53;;;;;;;3.55;1.50;;;17.30;99.90;;;;;;5034286;28;20052;-66
2022/05/24 02:04:21;;;;;;;3.67;1.45;;;17.30;99.90;;;;;;5052525;28;20389;-65
2022/05/24 02:07:08;;;;;;;5.05;1.70;;;17.30;99.90;;;;;;5052029;28;20033;-66
2022/05/24 02:09:37;;;;;;;5.85;1.90;;;17.20;99.90;;;;;;5052349;28;20033;-65
2022/05/24 02:12:12;;;;;;;4.38;1.35;;;17.10;99.90;;;;;;5052632;28;20078;-66
2022/05/24 02:14:42;;;;;;;4.20;1.73;;;17.20;99.90;;;;;;5052530;28;20116;-66
2022/05/24 02:17:20;;;;;;;2.58;1.55;;;17.20;99.90;;;;;;5052671;28;20033;-66
2022/05/24 02:19:50;;;;;;;1.92;1.40;;;17.30;99.90;;;;;;5052275;28;20068;-66
2022/05/24 02:22:21;;;;;;;5.63;2.25;;;17.30;99.90;;;;;;5034978;28;20095;-66
2022/05/24 02:25:16;;;;;;;2.15;1.85;;;17.20;99.90;;;;;;5052009;28;20040;-66
2022/05/24 02:27:44;;;;;;;3.97;2.25;;;17.20;99.90;;;;;;5005087;28;20335;-65
2022/05/24 02:30:13;;;;;;;3.17;2.15;;;17.10;99.90;;;;;;5052458;28;20037;-66
2022/05/24 02:32:38;;;;;;;2.53;1.90;;;17.10;99.90;;;;;;5051264;28;20053;-65
2022/05/24 02:35:05;;;;;;;3.03;1.65;;;17.10;99.90;;;;;;5034480;28;20122;-66
2022/05/24 02:37:30;;;;;;;3.13;1.45;;;17.10;99.90;;;;;;5051298;28;20036;-65
2022/05/24 02:42:40;;;;;;;1.70;1.60;;;17.00;99.90;;;;;;5051601;28;20060;-66
2022/05/24 02:45:06;;;;;;;3.95;1.48;;;16.90;99.90;;;;;;5052193;28;20443;-66
2022/05/24 02:47:32;;;;;;;6.53;1.77;;;16.90;99.90;;;;;;5033763;28;20123;-66
2022/05/24 02:49:57;;;;;;;3.65;2.05;;;16.90;99.90;;;;;;5034169;28;20248;-66
2022/05/24 02:52:23;;;;;;;2.90;1.88;;;16.90;99.90;;;;;;5052372;28;20025;-66
2022/05/24 02:54:49;;;;;;;5.78;2.05;;;17.00;99.90;;;;;;5051369;28;20474;-65
2022/05/24 02:57:16;;;;;;;4.75;2.00;;;17.00;99.90;;;;;;5052204;28;20039;-65
2022/05/24 02:59:41;;;;;;;4.88;2.30;;;17.00;99.90;;;;;;5051363;28;20036;-65
2022/05/24 03:02:07;;;;;;;3.47;2.28;;;17.00;99.90;;;;;;5033761;28;20582;-67
2022/05/24 03:04:34;;;;;;;2.17;1.83;;;17.00;99.90;;;;;;5051362;28;20040;-66
2022/05/24 03:09:45;;;;;;;2.90;2.47;;;16.90;99.90;;;;;;5051016;28;20044;-66
2022/05/24 03:14:56;;;;;;;3.83;1.73;;;17.00;99.90;;;;;;5051737;28;20048;-65
2022/05/24 03:17:23;;;;;;;8.50;2.78;;;17.00;99.90;;;;;;5051549;28;20037;-65
2022/05/24 03:19:49;;;;;;;3.20;2.30;;;17.00;99.90;;;;;;5050724;28;20433;-65
2022/05/24 03:22:15;;;;;;;3.97;2.22;;;16.90;99.90;;;;;;5033683;28;20048;-65
2022/05/24 03:24:41;;;;;;;3.65;2.60;;;16.80;99.90;;;;;;5050958;28;20037;-67
2022/05/24 03:27:11;;;;;;;3.05;2.75;;;16.80;99.90;;;;;;5051352;28;20483;-66
2022/05/24 03:29:42;;;;;;;3.88;3.17;;;16.80;99.90;;;;;;5032956;28;20037;-65
2022/05/24 03:32:10;;;;;;;5.83;3.90;;;16.70;99.90;;;;;;5051014;28;20340;-66
2022/05/24 03:34:36;;;;;;;3.35;2.80;;;16.70;99.90;;;;;;5050900;28;20290;-66
2022/05/24 03:37:02;;;;;;;2.70;2.47;;;16.70;99.90;;;;;;5033503;28;20033;-66
2022/05/24 03:39:32;;;;;;;3.60;2.80;;;16.80;99.90;;;;;;5033512;28;20063;-65
2022/05/24 03:41:58;;;;;;;3.30;2.92;;;16.80;99.90;;;;;;5051163;28;20037;-66
2022/05/24 03:44:23;;;;;;;4.78;4.03;;;16.80;99.90;;;;;;5051182;28;20382;-66
2022/05/24 03:46:49;;;;;;;3.65;3.33;;;16.60;99.90;;;;;;5032259;28;20040;-65
2022/05/24 03:49:15;;;;;;;4.82;3.20;;;16.50;99.90;;;;;;5032583;28;20044;-65
2022/05/24 03:51:41;;;;;;;10.38;3.30;;;16.50;99.90;;;;;;5050434;28;20033;-65
2022/05/24 03:54:07;;;;;;;4.88;3.20;;;16.60;99.90;;;;;;5033334;28;20040;-65
2022/05/24 03:56:34;;;;;;;4.47;3.45;;;16.60;99.90;;;;;;5050241;28;20061;-66
2022/05/24 03:59:00;;;;;;;4.28;3.88;;;16.60;99.90;;;;;;5032813;28;20110;-67
2022/05/24 04:01:26;;;;;;;6.80;4.13;;;16.60;99.90;;;;;;5032631;28;20052;-64
2022/05/24 04:03:52;;;;;;;4.28;3.33;;;16.60;99.90;;;;;;5032089;28;20517;-65
2022/05/24 04:06:18;;;;;;;4.47;4.00;;;16.70;99.90;;;;;;5032719;28;20506;-65
2022/05/24 04:08:45;;;;;;;5.68;3.63;;;16.80;99.90;;;;;;5050100;28;20095;-66
2022/05/24 04:11:12;;;;;;;4.35;3.72;;;16.80;99.90;;;;;;5050733;28;20029;-65
2022/05/24 04:13:40;;;;;;;5.68;3.90;;;16.80;99.90;;;;;;5050375;28;20037;-66
2022/05/24 04:16:06;;;;;;;6.50;3.67;;;16.80;99.90;;;;;;5051147;28;20040;-65
2022/05/24 04:18:33;;;;;;;6.95;4.40;;;16.80;99.90;;;;;;5050745;28;20041;-68
2022/05/24 04:20:59;;;;;;;8.38;4.10;;;16.80;99.90;;;;;;5051012;28;20044;-65
2022/05/24 04:23:25;;;;;;;6.35;4.78;;;16.80;99.90;;;;;;5032977;28;20037;-66
2022/05/24 04:25:52;;;;;;;5.47;4.30;;;16.70;99.90;;;;;;5050337;28;20036;-65
2022/05/24 04:28:19;;;;;;;5.70;3.92;;;16.70;99.90;;;;;;5051083;28;20037;-65
2022/05/24 04:30:48;;;;;;;6.18;4.78;;;16.60;99.90;;;;;;5032227;28;20037;-66
2022/05/24 04:33:15;;;;;;;8.90;4.70;;;16.70;99.90;;;;;;5032323;28;20045;-66
2022/05/24 04:35:43;;;;;;;5.18;4.65;;;16.60;99.90;;;;;;5032166;28;20044;-66
2022/05/24 04:38:10;;;;;;;7.18;4.25;;;16.60;99.90;;;;;;5050805;28;20358;-65
2022/05/24 04:43:20;;;;;;;7.85;4.18;;;16.80;99.90;;;;;;5050516;28;20095;-66
2022/05/24 04:45:46;;;;;;;4.72;4.32;;;16.80;99.90;;;;;;5050015;28;20065;-66
2022/05/24 04:48:12;;;;;;;6.35;4.35;;;16.70;99.90;;;;;;5050612;28;20029;-66
2022/05/24 04:50:38;;;;;;;8.75;4.93;;;16.70;99.90;;;;;;5049610;28;20033;-65
2022/05/24 04:53:06;;;;;;;5.18;4.68;;;16.70;99.90;;;;;;5050572;28;20061;-65
2022/05/24 04:55:33;;;;;;;5.85;4.10;;;16.70;99.90;;;;;;5050246;28;20425;-66
2022/05/24 04:57:59;;;;;;;9.48;4.13;;;16.80;99.90;;;;;;5050438;28;20033;-65
2022/05/24 05:00:25;;;;;;;10.77;4.60;;;16.90;99.90;;;;;;5051539;28;20072;-65
2022/05/24 05:02:51;;;;;;;5.30;3.95;;;16.90;99.90;;;;;;5035633;28;20088;-65
2022/05/24 05:05:18;;;;;;;7.28;4.57;;;16.90;99.90;;;;;;5036173;28;20037;-65
2022/05/24 05:07:43;;;;;;;5.68;4.30;;;16.90;99.90;;;;;;5035297;28;20040;-66
2022/05/24 05:10:12;;;;;;;5.97;4.68;;;17.00;99.90;;;;;;5054129;28;20025;-66
2022/05/24 05:12:38;;;;;;;7.18;4.85;;;17.00;99.90;;;;;;5053331;28;20033;-66
2022/05/24 05:15:06;;;;;;;5.63;4.07;;;17.10;99.90;;;;;;5053642;28;20067;-67
2022/05/24 05:17:32;;;;;;;9.38;4.30;;;17.10;99.90;;;;;;5053350;28;20106;-66
2022/05/24 05:19:59;;;;;;;5.30;4.13;;;17.10;99.90;;;;;;5035890;28;20037;-66
2022/05/24 05:22:25;;;;;;;9.50;4.68;;;16.90;99.90;;;;;;5037743;28;20053;-65
2022/05/24 05:24:51;;;;;;;6.60;4.03;;;17.00;99.90;;;;;;5022294;28;20354;-67
2022/05/24 05:27:18;;;;;;;7.97;4.10;;;16.90;99.90;;;;;;5055428;28;20450;-65
2022/05/24 05:32:30;;;;;;;4.38;3.25;;;16.90;99.90;;;;;;5053022;28;20110;-66
2022/05/24 05:34:57;;;;;;;4.40;3.20;;;16.90;99.90;;;;;;5052479;28;20045;-66
2022/05/24 05:37:25;;;;;;;5.22;3.60;;;16.90;99.90;;;;;;5035947;28;20044;-67
2022/05/24 05:39:51;;;;;;;4.22;3.17;;;16.90;99.90;;;;;;5035124;28;20043;-66
2022/05/24 05:42:17;;;;;;;6.18;4.10;;;16.90;99.90;;;;;;5053453;28;20131;-67
2022/05/24 05:44:42;;;;;;;4.85;3.58;;;16.80;99.90;;;;;;5034664;28;20036;-68
2022/05/24 05:47:08;;;;;;;9.18;3.65;;;16.90;99.90;;;;;;5034921;28;20071;-67
2022/05/24 05:49:34;;;;;;;8.45;3.83;;;16.90;99.90;;;;;;5035136;28;20033;-66
2022/05/24 05:52:00;;;;;;;4.47;3.95;;;16.90;99.90;;;;;;5034182;28;20457;-67
2022/05/24 05:54:26;;;;;;;7.63;4.03;;;17.00;99.90;;;;;;5034817;28;20037;-67
2022/05/24 05:56:52;;;;;;;4.38;3.20;;;17.10;99.90;;;;;;5034477;28;20071;-66
2022/05/24 05:59:18;;;;;;;6.05;3.25;;;17.20;99.90;;;;;;5046763;28;20075;-68
2022/05/24 06:01:44;;;;;;;13.02;4.18;;;17.20;99.90;;;;;;5052762;28;20461;-69
2022/05/24 06:04:10;;;;;;;4.75;2.58;;;17.20;99.90;;;;;;5066765;28;20195;-68
2022/05/24 06:06:40;;;;;;;6.30;2.15;;;17.20;99.90;;;;;;5072637;28;20139;-67
2022/05/24 06:09:06;;;;;;;5.13;2.20;;;17.20;99.90;;;;;;5054753;28;20056;-69
2022/05/24 06:11:32;;;;;;;5.00;2.35;;;17.20;99.90;;;;;;5054263;28;20282;-67
2022/05/24 06:13:57;;;;;;;2.47;1.52;;;17.30;99.90;;;;;;5072338;28;20267;-71
2022/05/24 06:16:23;;;;;;;4.15;1.80;;;17.30;99.90;;;;;;5073692;28;20123;-68
2022/05/24 06:18:49;;;;;;;1.55;1.45;;;17.30;99.90;;;;;;5072283;28;20111;-68
2022/05/24 06:21:15;;;;;;;1.60;1.48;;;17.40;99.90;;;;;;5072282;28;20482;-69
2022/05/24 06:23:40;;;;;;;3.92;1.60;;;17.20;99.90;;;;;;5053713;28;20443;-68
2022/05/24 06:26:08;;;;;;;3.35;1.35;;;17.20;99.90;;;;;;5072665;28;20064;-70
2022/05/24 06:28:34;;;;;;;2.85;1.60;;;17.10;99.90;;;;;;5072254;28;20376;-69
2022/05/24 06:31:00;;;;;;;2.33;1.30;;;17.00;99.90;;;;;;5072454;28;20040;-71
2022/05/24 06:33:26;;;;;;;2.95;1.08;;;16.80;99.90;;;;;;5074351;28;20044;-69
2022/05/24 06:35:52;;;;;;;1.88;1.00;;;16.60;99.90;;;;;;5055877;28;20393;-70
2022/05/24 06:38:18;;;;;;;1.67;1.05;;;16.30;99.90;;;;;;5072399;28;20033;-69
2022/05/24 06:40:45;;;;;;;5.10;1.15;;;16.20;99.90;;;;;;5066663;28;20085;-75
2022/05/24 06:43:11;;;;;;;4.53;1.08;;;16.90;99.90;;;;;;5070654;28;20033;-76
2022/05/24 06:45:36;;;;;;;1.45;0.65;;;17.80;99.90;;;;;;5053608;28;20446;-79
2022/05/24 06:48:02;;;;;;;2.42;0.90;;;18.20;99.90;;;;;;5058168;28;20391;-74
2022/05/24 06:50:28;;;;;;;2.13;1.15;;;18.30;99.90;;;;;;5052263;28;20041;-75
2022/05/24 06:52:55;;;;;;;9.05;1.63;;;18.80;99.90;;;;;;5051939;28;20099;-75
2022/05/24 06:55:22;;;;;;;2.30;1.00;;;19.20;99.90;;;;;;5034890;28;20527;-76
2022/05/24 06:57:48;;;;;;;1.98;0.93;;;19.40;99.90;;;;;;5055865;28;20086;-76
2022/05/24 07:03:04;;;;;;;2.67;0.60;;;19.40;99.90;;;;;;5071344;28;20044;-75
2022/05/24 07:05:30;;;;;;;9.30;1.55;;;19.90;99.90;;;;;;5071569;28;20424;-76
2022/05/24 07:07:58;;;;;;;5.95;0.73;;;20.20;99.90;;;;;;5071344;28;20167;-75
2022/05/24 07:10:24;;;;;;;6.70;0.85;;;19.70;99.90;;;;;;5071303;28;20035;-75
2022/05/24 07:13:19;;;;;;;3.13;0.57;;;20.00;99.90;;;;;;5070610;28;20029;-75
2022/05/24 07:15:46;;;;;;;6.70;1.17;;;19.80;99.90;;;;;;5032140;28;20060;-74
2022/05/24 07:18:11;;;;;;;0.70;0.40;;;20.00;99.90;;;;;;5053732;28;20040;-74
2022/05/24 07:20:37;;;;;;;3.92;0.73;;;19.60;99.90;;;;;;5036291;28;20152;-76
2022/05/24 07:23:24;;;;;;;6.88;1.02;;;19.60;99.90;;;;;;5070557;28;20039;-75
2022/05/24 07:25:51;;;;;;;3.38;0.60;;;20.00;99.90;;;;;;5070577;28;20125;-73
2022/05/24 07:28:17;;;;;;;0.90;0.57;;;19.90;99.90;;;;;;5079361;28;20056;-74
2022/05/24 07:30:44;;;;;;;2.65;0.70;;;19.90;99.90;;;;;;5063329;28;20128;-74
2022/05/24 07:33:12;;;;;;;3.28;0.52;;;20.00;99.90;;;;;;5082007;28;20043;-74
2022/05/24 07:35:38;;;;;;;1.77;0.50;;;20.30;99.90;;;;;;5076770;28;20020;-76
2022/05/24 07:38:10;;;;;;;1.90;0.52;;;20.50;99.90;;;;;;5070560;28;20523;-74
2022/05/24 07:46:10;;;;;;;1.40;0.30;;;20.00;99.90;;;;;;5071948;28;20064;-76
2022/05/24 07:48:36;;;;;;;2.13;0.40;;;20.00;99.90;;;;;;5052797;28;20032;-58
2022/05/24 07:51:03;;;;;;;1.70;0.50;;;20.20;99.90;;;;;;5047967;28;20071;-61
2022/05/24 07:53:28;;;;;;;3.60;0.50;;;20.60;99.90;;;;;;5050981;28;20405;-59
2022/05/24 07:55:55;;;;;;;2.53;0.50;;;20.80;99.90;;;;;;5032297;28;20083;-60
2022/05/24 07:58:21;;;;;;;2.17;0.57;;;20.80;99.90;;;;;;5050604;28;20033;-60
2022/05/24 08:00:47;;;;;;;1.65;0.63;;;20.80;99.90;;;;;;5050061;28;20040;-60
2022/05/24 08:03:14;;;;;;;3.58;0.80;;;20.30;99.90;;;;;;5051391;28;20433;-60
2022/05/24 08:05:40;;;;;;;5.90;0.47;;;20.30;99.90;;;;;;5050950;28;20109;-59
2022/05/24 08:08:07;;;;;;;3.50;0.73;;;20.90;99.90;;;;;;5050191;28;20439;-59
2022/05/24 08:10:34;;;;;;;0.82;0.30;;;20.90;99.90;;;;;;5050796;28;20041;-72
2022/05/24 08:13:04;;;;;;;3.17;0.95;;;20.70;99.90;;;;;;5059767;28;20060;-75
2022/05/24 08:15:31;;;;;;;2.25;0.40;;;20.80;99.90;;;;;;5032352;28;20441;-73
2022/05/24 08:17:57;;;;;;;3.33;0.38;;;20.60;99.90;;;;;;5044859;28;20044;-75
2022/05/24 08:20:23;;;;;;;1.85;0.50;;;20.40;99.90;;;;;;5051135;28;20429;-74
2022/05/24 08:22:49;;;;;;;3.60;0.30;;;20.50;99.90;;;;;;5050608;28;20190;-74
2022/05/24 08:25:15;;;;;;;2.47;0.38;;;20.90;99.90;;;;;;5069495;28;20056;-74
2022/05/24 08:27:40;;;;;;;6.53;0.30;;;21.10;99.90;;;;;;5067886;28;20419;-74
2022/05/24 08:30:08;;;;;;;1.05;0.28;;;21.40;99.90;;;;;;5051995;28;20082;-74
2022/05/24 08:32:34;;;;;;;4.43;1.48;;;20.70;99.90;;;;;;5051997;28;20126;-74
2022/05/24 08:35:00;;;;;;;8.20;1.05;;;21.20;99.90;;;;;;5068596;28;20040;-74
2022/05/24 08:37:26;;;;;;;1.67;0.73;;;21.30;99.90;;;;;;5074608;28;20041;-74
2022/05/24 08:39:57;;;;;;;2.70;0.20;;;20.90;99.90;;;;;;5066532;28;20171;-73
2022/05/24 08:42:32;;;;;;;3.55;0.65;;;21.10;99.90;;;;;;5052993;28;20052;-69
2022/05/24 08:48:22;;;;;;;0.80;0.20;;;20.20;99.90;;;;;;5054949;28;20409;-69
2022/05/24 08:50:51;;;;;;;3.50;0.60;;;19.90;99.90;;;;;;5062730;28;20048;-71
2022/05/24 08:53:42;;;;;;;0.77;0.20;;;19.90;99.90;;;;;;5053756;28;20037;-73
2022/05/24 08:56:11;;;;;;;3.03;0.20;;;19.70;99.90;;;;;;5053408;28;20112;-73
2022/05/24 08:58:51;;;;;;;0.70;0.20;;;19.50;99.90;;;;;;5053828;28;20029;-72
2022/05/24 09:01:24;;;;;;;1.13;0.30;;;19.50;99.90;;;;;;5052399;28;20359;-72
2022/05/24 09:03:51;;;;;;;0.80;0.20;;;19.60;99.90;;;;;;5053615;28;20060;-72
2022/05/24 09:06:41;;;;;;;1.00;0.50;;;19.60;99.90;;;;;;5053915;28;20124;-72
2022/05/24 09:09:27;;;;;;;1.02;0.47;;;19.70;99.90;;;;;;5052098;28;20073;-72
2022/05/24 09:12:00;;;;;;;3.17;0.40;;;19.90;99.90;;;;;;5053294;28;20071;-72
2022/05/24 09:14:45;;;;;;;3.05;0.45;;;20.10;99.90;;;;;;5053867;28;20037;-72
2022/05/24 09:17:52;;;;;;;2.65;0.20;;;20.00;99.90;;;;;;5051121;28;20068;-73
2022/05/24 09:20:37;;;;;;;2.72;0.30;;;19.90;99.90;;;;;;5043160;28;20044;-73
2022/05/24 09:23:11;;;;;;;2.22;0.45;;;20.10;99.90;;;;;;5052840;28;20112;-73
2022/05/24 09:25:50;;;;;;;1.38;0.25;;;20.30;99.10;;;;;;5052420;28;20037;-72
2022/05/24 09:28:16;;;;;;;0.82;0.28;;;20.50;99.70;;;;;;5053997;28;20029;-71
2022/05/24 09:30:42;;;;;;;0.77;0.22;;;21.00;98.70;;;;;;5053226;28;20113;-72
2022/05/24 09:33:41;;;;;;;1.92;0.30;;;21.50;98.40;;;;;;5051589;28;20106;-72
2022/05/24 09:36:07;;;;;;;1.75;0.28;;;21.80;97.70;;;;;;5041196;28;20037;-73
2022/05/24 09:38:39;;;;;;;0.40;0.20;;;21.80;97.80;;;;;;5051897;28;20451;-72
2022/05/24 09:41:13;;;;;;;1.30;0.38;;;21.00;96.50;;;;;;5050840;28;20128;-72
2022/05/24 09:43:40;;;;;;;0.57;0.10;;;21.00;97.30;;;;;;5051775;28;20037;-72
2022/05/24 09:46:32;;;;;;;4.65;0.52;;;21.30;96.00;;;;;;5050415;28;20132;-72
2022/05/24 09:48:58;;;;;;;3.10;0.38;;;21.90;95.80;;;;;;5048138;28;20056;-72
2022/05/24 09:51:35;;;;;;;1.02;0.40;;;22.10;95.60;;;;;;5051985;28;20438;-71
2022/05/24 09:54:15;;;;;;;1.75;0.20;;;21.90;94.70;;;;;;5052601;28;20041;-73
2022/05/24 09:56:41;;;;;;;0.47;0.10;;;21.60;96.20;;;;;;5052939;28;20470;-71
2022/05/24 09:59:20;;;;;;;0.65;0.15;;;20.80;94.60;;;;;;5052711;28;20029;-72
2022/05/24 10:01:49;;;;;;;3.85;0.35;;;20.50;96.80;;;;;;5050822;28;20154;-71
2022/05/24 10:04:39;;;;;;;4.15;0.40;;;20.50;96.30;;;;;;5052480;28;20076;-72
2022/05/24 10:07:40;;;;;;;2.72;0.25;;;20.40;96.70;;;;;;5050741;28;20045;-72
2022/05/24 10:10:14;;;;;;;0.93;0.23;;;20.80;96.50;;;;;;4990318;28;20109;-71
2022/05/24 10:13:06;;;;;;;2.63;0.35;;;21.10;94.80;;;;;;4991444;28;20274;-73
2022/05/24 10:15:47;;;;;;;2.28;0.40;;;22.00;95.40;;;;;;4974640;28;20042;-72
2022/05/24 10:18:29;;;;;;;0.40;0.30;;;22.40;93.20;;;;;;4990591;28;20095;-73
2022/05/24 10:21:14;;;;;;;6.78;0.73;;;22.50;92.70;;;;;;4973526;28;20046;-71
2022/05/24 10:23:58;;;;;;;2.78;0.32;;;22.50;92.30;;;;;;4990852;28;20391;-72
2022/05/24 10:26:56;;;;;;;0.80;0.20;;;22.30;91.60;;;;;;4990614;28;20039;-72
2022/05/24 10:29:31;;;;;;;3.72;0.30;;;22.10;92.60;;;;;;4973931;28;20164;-73
2022/05/24 10:38:17;;;;;;;1.50;0.30;;;22.50;92.80;;;;;;4969310;28;20055;-72
2022/05/24 10:38:32;;;;;;;2.47;0.20;;;22.60;92.80;;;;;;4970922;28;20116;-72
2022/05/24 10:41:13;;;;;;;5.88;0.45;;;22.00;93.10;;;;;;4970331;28;20121;-74
2022/05/24 10:44:00;;;;;;;4.75;0.40;;;21.90;93.50;;;;;;4971073;28;20039;-73
2022/05/24 10:46:55;;;;;;;1.70;0.40;;;21.70;94.00;;;;;;4984416;28;20037;-74
2022/05/24 10:49:46;;;;;;;2.58;0.40;;;21.70;93.50;;;;;;5051752;28;20087;-73
2022/05/24 10:52:17;;;;;;;2.65;0.35;;;21.50;93.40;;;;;;5032971;28;20512;-73
2022/05/24 10:54:49;;;;;;;2.80;0.40;;;21.60;94.10;;;;;;5051532;28;20029;-73
2022/05/24 10:57:29;;;;;;;0.45;0.10;;;22.40;93.40;;;;;;5051484;28;20493;-72
2022/05/24 11:00:06;;;;;;;2.38;0.20;;;22.80;92.70;;;;;;5033274;28;20036;-73
2022/05/24 11:02:57;;;;;;;0.88;0.20;;;22.80;90.30;;;;;;5051894;28;20053;-74
2022/05/24 11:05:25;;;;;;;0.80;0.20;;;22.80;91.50;;;;;;5033060;28;20463;-73
2022/05/24 11:08:05;;;;;;;1.33;0.20;;;23.10;91.00;;;;;;5051210;28;20052;-73
2022/05/24 11:10:36;;;;;;;2.38;0.30;;;23.00;90.70;;;;;;5050819;28;20200;-72
2022/05/24 11:13:12;;;;;;;0.30;0.10;;;23.50;90.50;;;;;;5050645;28;20033;-74
2022/05/24 11:15:54;;;;;;;8.40;0.70;;;23.70;91.20;;;;;;5051271;28;20037;-72
2022/05/24 11:18:23;;;;;;;2.42;0.22;;;24.20;88.70;;;;;;5051382;28;20107;-72
2022/05/24 11:21:13;;;;;;;5.57;0.30;;;24.60;88.90;;;;;;5032745;28;20036;-73
2022/05/24 11:23:46;;;;;;;0.98;0.28;;;24.20;87.30;;;;;;5050851;28;20032;-73
2022/05/24 11:26:21;;;;;;;4.00;0.30;;;23.90;86.60;;;;;;5050093;28;20055;-71
2022/05/24 11:28:51;;;;;;;0.80;0.40;;;23.40;88.10;;;;;;5050579;28;20041;-73
2022/05/24 11:31:49;;;;;;;3.13;0.40;;;23.10;88.10;;;;;;5031987;28;20151;-72
2022/05/24 11:34:26;;;;;;;3.63;0.43;;;22.60;88.90;;;;;;5023566;28;20142;-72
2022/05/24 11:37:21;;;;;;;1.80;0.32;;;22.30;89.60;;;;;;5032667;28;20071;-73
2022/05/24 11:39:47;;;;;;;4.75;0.32;;;22.20;90.80;;;;;;5032733;28;20470;-73
2022/05/24 11:42:19;;;;;;;3.22;0.40;;;22.30;89.70;;;;;;5050172;28;20036;-72
2022/05/24 11:44:44;;;;;;;1.55;0.28;;;22.50;88.10;;;;;;5032722;28;20043;-73
2022/05/24 11:47:37;;;;;;;6.75;0.55;;;22.40;89.20;;;;;;5050157;28;20452;-73
2022/05/24 11:50:06;;;;;;;0.70;0.30;;;23.00;89.00;;;;;;5049472;28;20098;-71
2022/05/24 11:52:40;;;;;;;2.55;0.30;;;22.70;88.20;;;;;;5050513;28;20413;-72
2022/05/24 11:55:06;;;;;;;1.50;0.38;;;22.70;86.80;;;;;;5049641;28;20047;-72
2022/05/24 11:57:40;;;;;;;2.80;0.38;;;21.70;88.30;;;;;;5032570;28;20033;-73
2022/05/24 12:00:07;;;;;;;1.15;0.35;;;21.70;90.70;;;;;;5031891;28;20486;-74
2022/05/24 12:07:53;;;;;;;3.60;0.20;;;21.80;90.50;;;;;;5032479;28;20049;-73
2022/05/24 12:08:28;;;;;;;1.27;0.30;;;21.90;90.50;;;;;;5050192;28;20048;-74
2022/05/24 12:11:06;;;;;;;9.68;0.52;;;22.00;90.80;;;;;;5050170;28;20041;-73
2022/05/24 12:13:56;;;;;;;0.75;0.30;;;22.20;88.90;;;;;;5032611;28;20128;-74
2022/05/24 12:16:43;;;;;;;3.97;0.20;;;22.90;87.50;;;;;;5050419;28;20044;-73
2022/05/24 12:19:40;;;;;;;2.90;0.75;;;23.30;88.40;;;;;;5031994;28;20124;-74
2022/05/24 12:22:14;;;;;;;0.95;0.30;;;23.00;87.70;;;;;;5047314;28;20036;-73
2022/05/24 12:24:40;;;;;;;7.45;1.13;;;22.30;86.50;;;;;;5032401;28;20048;-73
2022/05/24 12:27:36;;;;;;;2.58;0.38;;;22.50;86.70;;;;;;5049736;28;20347;-73
2022/05/24 12:30:33;;;;;;;2.55;0.40;;;23.00;86.70;;;;;;5031696;28;20048;-75
2022/05/24 12:33:25;;;;;;;1.67;0.38;;;23.60;86.50;;;;;;5049903;28;20080;-75
2022/05/24 12:35:54;;;;;;;0.40;0.17;;;24.10;83.20;;;;;;5050430;28;20429;-73
2022/05/24 12:38:24;;;;;;;1.52;0.20;;;23.60;80.70;;;;;;5031878;28;20437;-73
2022/05/24 12:41:03;;;;;;;1.85;0.40;;;23.20;83.90;;;;;;5032036;28;20086;-73
2022/05/24 12:43:29;;;;;;;1.88;0.30;;;23.00;86.20;;;;;;5032222;28;20047;-63
2022/05/24 12:46:00;;;;;;;1.08;0.28;;;22.50;85.60;;;;;;5049561;28;20033;-61
2022/05/24 12:48:36;;;;;;;0.88;0.28;;;22.50;86.50;;;;;;5032397;28;20044;-61
2022/05/24 12:51:07;;;;;;;4.78;0.60;;;22.50;92.70;;;;;;5049656;28;20029;-61
2022/05/24 12:53:34;;;;;;;4.35;0.45;;;23.20;90.60;;;;;;5050134;28;20044;-62
2022/05/24 12:56:05;;;;;;;6.43;0.45;;;23.30;83.00;;;;;;5031773;28;20494;-61
2022/05/24 12:58:37;;;;;;;5.90;0.40;;;23.70;84.30;;;;;;5050396;28;20025;-62
2022/05/24 13:01:21;;;;;;;13.35;1.15;;;23.80;83.60;;;;;;5049410;28;20045;-63
2022/05/24 13:04:09;;;;;;;3.22;0.70;;;24.10;87.10;;;;;;5049706;28;20045;-61
2022/05/24 13:06:38;;;;;;;1.33;0.20;;;24.40;82.00;;;;;;5050574;28;20503;-62
2022/05/24 13:09:27;;;;;;;1.80;0.35;;;24.30;79.20;;;;;;5031156;28;20041;-61
2022/05/24 13:11:56;;;;;;;6.47;0.40;;;23.30;80.70;;;;;;5049609;28;20482;-62
2022/05/24 13:14:46;;;;;;;2.25;0.43;;;22.70;82.50;;;;;;5049314;28;20033;-61
2022/05/24 13:17:15;;;;;;;3.00;0.88;;;22.70;83.80;;;;;;5049687;28;20087;-62
2022/05/24 13:19:46;;;;;;;3.20;0.68;;;22.70;82.60;;;;;;5049708;28;20033;-62
2022/05/24 13:22:13;;;;;;;2.65;0.65;;;23.00;83.10;;;;;;5051288;28;20116;-62
2022/05/24 13:24:58;;;;;;;6.00;0.50;;;22.90;82.70;;;;;;5053181;28;20490;-62
2022/05/24 13:27:25;;;;;;;2.85;0.30;;;22.70;85.40;;;;;;5053155;28;20082;-62
2022/05/24 13:35:28;;;;;;;2.22;0.80;;;23.30;85.60;;;;;;5055295;28;20053;-62
2022/05/24 13:37:57;;;;;;;0.82;0.30;;;23.80;85.60;;;;;;5045585;28;20033;-62
2022/05/24 13:40:50;;;;;;;2.60;0.40;;;23.70;81.70;;;;;;5072120;28;20037;-61
2022/05/24 13:43:32;;;;;;;6.93;0.73;;;23.60;81.90;;;;;;5072615;28;20078;-63
2022/05/24 13:46:23;;;;;;;6.97;0.40;;;23.70;85.80;;;;;;5072877;28;20033;-62
2022/05/24 13:48:56;;;;;;;7.35;1.10;;;23.50;82.90;;;;;;5054597;28;20485;-62
2022/05/24 13:51:30;;;;;;;2.75;0.32;;;23.40;87.30;;;;;;5054309;28;20033;-63
2022/05/24 13:53:57;;;;;;;6.25;0.77;;;23.90;80.30;;;;;;5045592;28;20037;-62